createdAt,value
2018-05-31T00:00:24.408Z,20.90
2018-05-31T00:02:57.087Z,20.90
2018-05-31T00:05:29.466Z,20.80
2018-05-31T00:08:01.809Z,20.80
2018-05-31T00:10:35.870Z,20.80
2018-05-31T00:13:08.431Z,20.80
2018-05-31T00:15:40.953Z,20.80
2018-05-31T00:18:14.313Z,20.70
2018-05-31T00:20:47.100Z,20.70
2018-05-31T00:23:19.618Z,20.70
2018-05-31T00:25:52.854Z,20.60
2018-05-31T00:28:25.646Z,20.60
2018-05-31T00:30:58.125Z,20.60
2018-05-31T00:33:32.179Z,20.60
2018-05-31T00:36:04.707Z,20.50
2018-05-31T00:38:37.157Z,20.60
2018-05-31T00:41:11.215Z,20.40
2018-05-31T00:43:43.964Z,20.50
2018-05-31T00:46:16.417Z,20.40
2018-05-31T00:48:48.922Z,20.40
2018-05-31T00:51:23.178Z,20.30
2018-05-31T00:53:55.927Z,20.30
2018-05-31T00:56:28.355Z,20.30
2018-05-31T00:59:00.840Z,20.30
2018-05-31T01:01:34.162Z,20.30
2018-05-31T01:04:06.768Z,20.20
2018-05-31T01:06:40.055Z,20.20
2018-05-31T01:09:13.446Z,20.20
2018-05-31T01:11:46.791Z,20.10
2018-05-31T01:14:19.228Z,20.10
2018-05-31T01:16:53.398Z,20.00
2018-05-31T01:19:26.778Z,20.00
2018-05-31T01:22:00.160Z,19.90
2018-05-31T01:24:32.823Z,19.90
2018-05-31T01:27:05.211Z,19.90
2018-05-31T01:29:37.778Z,19.80
2018-05-31T01:32:10.119Z,19.80
2018-05-31T01:34:43.255Z,19.70
2018-05-31T01:37:16.618Z,19.70
2018-05-31T01:39:50.033Z,19.60
2018-05-31T01:42:23.521Z,19.60
2018-05-31T01:44:56.234Z,19.50
2018-05-31T01:47:29.567Z,19.50
2018-05-31T01:50:02.738Z,19.40
2018-05-31T01:52:35.410Z,19.40
2018-05-31T01:55:07.837Z,19.40
2018-05-31T01:57:41.032Z,19.30
2018-05-31T02:00:13.514Z,19.30
2018-05-31T02:02:46.020Z,19.30
2018-05-31T02:05:18.448Z,19.20
2018-05-31T02:07:52.621Z,19.20
2018-05-31T02:10:25.161Z,19.20
2018-05-31T02:12:58.442Z,19.10
2018-05-31T02:15:31.578Z,19.00
2018-05-31T02:18:04.242Z,19.00
2018-05-31T02:20:37.556Z,19.00
2018-05-31T02:23:10.270Z,18.90
2018-05-31T02:25:43.522Z,18.90
2018-05-31T02:28:16.269Z,18.90
2018-05-31T02:30:48.825Z,18.80
2018-05-31T02:33:22.945Z,18.80
2018-05-31T02:35:55.742Z,18.70
2018-05-31T02:38:29.035Z,18.70
2018-05-31T02:41:01.452Z,18.70
2018-05-31T02:43:34.704Z,18.60
2018-05-31T02:46:07.413Z,18.60
2018-05-31T02:48:39.721Z,18.60
2018-05-31T02:51:12.284Z,18.50
2018-05-31T02:53:44.729Z,18.50
2018-05-31T02:56:17.132Z,18.50
2018-05-31T02:58:50.523Z,18.50
2018-05-31T03:01:23.082Z,18.40
2018-05-31T03:03:56.165Z,18.40
2018-05-31T03:06:28.801Z,18.30
2018-05-31T03:09:02.013Z,18.30
2018-05-31T03:11:35.322Z,18.30
2018-05-31T03:14:07.786Z,18.30
2018-05-31T03:16:40.936Z,18.30
2018-05-31T03:19:14.302Z,18.30
2018-05-31T03:21:47.033Z,18.30
2018-05-31T03:24:19.501Z,18.30
2018-05-31T03:26:52.858Z,18.20
2018-05-31T03:29:25.340Z,18.20
2018-05-31T03:31:57.725Z,18.20
2018-05-31T03:34:30.209Z,18.10
2018-05-31T03:37:03.421Z,18.10
2018-05-31T03:39:36.126Z,18.10
2018-05-31T03:42:09.571Z,18.10
2018-05-31T03:44:42.913Z,18.00
2018-05-31T03:47:15.301Z,18.00
2018-05-31T03:49:47.771Z,18.00
2018-05-31T03:52:21.084Z,18.00
2018-05-31T03:54:54.202Z,17.90
2018-05-31T03:57:26.749Z,17.90
2018-05-31T04:00:00.137Z,17.90
2018-05-31T04:02:33.416Z,17.90
2018-05-31T04:05:05.962Z,17.90
2018-05-31T04:07:38.351Z,17.90
2018-05-31T04:10:11.720Z,17.90
2018-05-31T04:12:44.767Z,17.90
2018-05-31T04:15:17.547Z,18.00
2018-05-31T04:17:50.777Z,18.00
2018-05-31T04:20:23.489Z,18.00
2018-05-31T04:22:55.880Z,18.00
2018-05-31T04:25:29.005Z,18.10
2018-05-31T04:28:01.631Z,18.10
2018-05-31T04:30:34.033Z,18.20
2018-05-31T04:33:07.416Z,18.30
2018-05-31T04:35:47.849Z,18.30
2018-05-31T04:38:21.231Z,18.40
2018-05-31T04:40:54.698Z,18.50
2018-05-31T04:43:28.835Z,18.80
2018-05-31T04:46:01.421Z,18.70
2018-05-31T04:48:35.574Z,19.00
2018-05-31T04:51:09.049Z,19.10
2018-05-31T04:53:41.965Z,19.10
2018-05-31T04:56:15.435Z,19.20
2018-05-31T04:58:48.732Z,19.50
2018-05-31T05:01:21.901Z,19.70
2018-05-31T05:03:54.611Z,19.60
2018-05-31T05:06:27.142Z,19.80
2018-05-31T05:09:00.282Z,20.10
2018-05-31T05:11:33.014Z,20.10
2018-05-31T05:14:05.632Z,20.30
2018-05-31T05:16:38.123Z,20.50
2018-05-31T05:19:11.545Z,20.70
2018-05-31T05:21:44.952Z,20.90
2018-05-31T05:24:18.267Z,21.20
2018-05-31T05:26:50.676Z,21.40
2018-05-31T05:29:23.089Z,21.90
2018-05-31T05:31:55.714Z,22.70
2018-05-31T05:34:29.220Z,23.70
2018-05-31T05:37:02.493Z,25.60
2018-05-31T05:39:34.994Z,25.60
2018-05-31T05:42:08.358Z,26.50
2018-05-31T05:44:40.857Z,27.30
2018-05-31T05:47:14.264Z,28.00
2018-05-31T05:49:47.595Z,28.90
2018-05-31T05:52:20.167Z,28.80
2018-05-31T05:54:52.710Z,29.10
2018-05-31T05:57:32.784Z,29.80
2018-05-31T06:00:06.484Z,30.30
2018-05-31T06:02:39.969Z,30.70
2018-05-31T06:05:12.861Z,30.70
2018-05-31T06:07:46.970Z,30.90
2018-05-31T06:10:20.449Z,31.10
2018-05-31T06:12:53.207Z,31.10
2018-05-31T06:15:25.722Z,31.30
2018-05-31T06:17:59.833Z,31.70
2018-05-31T06:20:32.625Z,31.70
2018-05-31T06:23:05.808Z,32.00
2018-05-31T06:25:38.517Z,32.00
2018-05-31T06:28:11.881Z,32.20
2018-05-31T06:30:45.356Z,32.40
2018-05-31T06:33:19.797Z,32.40
2018-05-31T06:35:53.174Z,32.20
2018-05-31T06:38:25.694Z,31.70
2018-05-31T06:40:58.822Z,31.10
2018-05-31T06:43:31.465Z,31.10
2018-05-31T06:46:04.651Z,31.40
2018-05-31T06:48:37.853Z,31.60
2018-05-31T06:51:11.172Z,31.80
2018-05-31T06:53:43.867Z,31.80
2018-05-31T06:56:18.085Z,32.30
2018-05-31T06:58:51.447Z,32.20
2018-05-31T07:01:24.817Z,32.10
2018-05-31T07:03:57.490Z,32.10
2018-05-31T07:06:30.859Z,32.00
2018-05-31T07:09:04.406Z,32.00
2018-05-31T07:11:37.077Z,32.00
2018-05-31T07:14:10.168Z,32.10
2018-05-31T07:16:43.540Z,32.20
2018-05-31T07:19:16.881Z,32.40
2018-05-31T07:21:49.441Z,32.50
2018-05-31T07:24:22.772Z,32.60
2018-05-31T07:26:56.127Z,32.60
2018-05-31T07:29:30.315Z,32.50
2018-05-31T07:32:02.875Z,32.40
2018-05-31T07:34:35.430Z,32.50
2018-05-31T07:37:08.758Z,32.60
2018-05-31T07:39:42.154Z,32.60
2018-05-31T07:42:15.378Z,32.70
2018-05-31T07:44:48.275Z,32.70
2018-05-31T07:47:21.449Z,32.70
2018-05-31T07:49:54.784Z,32.80
2018-05-31T07:52:28.899Z,32.90
2018-05-31T07:55:01.891Z,32.90
2018-05-31T07:57:34.818Z,33.00
2018-05-31T08:00:08.270Z,32.80
2018-05-31T08:02:41.548Z,32.70
2018-05-31T08:05:13.958Z,32.70
2018-05-31T08:07:48.002Z,32.80
2018-05-31T08:10:20.673Z,32.70
2018-05-31T08:12:53.219Z,32.70
2018-05-31T08:15:26.613Z,32.80
2018-05-31T08:17:59.013Z,32.80
2018-05-31T08:20:31.634Z,32.90
2018-05-31T08:23:05.697Z,32.80
2018-05-31T08:25:39.144Z,32.80
2018-05-31T08:28:12.488Z,32.90
2018-05-31T08:30:45.099Z,32.80
2018-05-31T08:33:17.613Z,32.90
2018-05-31T08:35:51.769Z,33.10
2018-05-31T08:38:24.403Z,33.00
2018-05-31T08:40:57.829Z,33.10
2018-05-31T08:43:31.257Z,33.10
2018-05-31T08:46:05.500Z,33.10
2018-05-31T08:48:38.213Z,33.10
2018-05-31T08:51:10.759Z,33.20
2018-05-31T08:53:44.865Z,33.30
2018-05-31T08:56:18.195Z,33.40
2018-05-31T08:58:50.866Z,33.40
2018-05-31T09:01:24.135Z,33.60
2018-05-31T09:03:57.639Z,33.80
2018-05-31T09:06:30.951Z,34.10
2018-05-31T09:09:05.058Z,34.50
2018-05-31T09:11:37.679Z,34.40
2018-05-31T09:14:10.154Z,34.70
2018-05-31T09:16:42.566Z,34.80
2018-05-31T09:19:14.980Z,34.80
2018-05-31T09:21:49.061Z,34.80
2018-05-31T09:24:21.577Z,34.70
2018-05-31T09:26:55.090Z,34.70
2018-05-31T09:29:29.139Z,34.50
2018-05-31T09:32:02.553Z,34.40
2018-05-31T09:34:35.222Z,34.40
2018-05-31T09:37:08.484Z,34.40
2018-05-31T09:39:41.848Z,34.40
2018-05-31T09:42:15.147Z,34.40
2018-05-31T09:44:48.515Z,34.30
2018-05-31T09:47:22.527Z,34.10
2018-05-31T09:49:55.191Z,34.10
2018-05-31T09:52:28.437Z,34.00
2018-05-31T09:55:01.071Z,34.00
2018-05-31T09:57:34.242Z,34.00
2018-05-31T10:00:07.605Z,34.00
2018-05-31T10:02:40.998Z,34.00
2018-05-31T10:05:14.296Z,33.90
2018-05-31T10:07:47.498Z,33.80
2018-05-31T10:10:19.880Z,33.70
2018-05-31T10:12:53.061Z,33.60
2018-05-31T10:15:25.904Z,33.60
2018-05-31T10:17:59.359Z,33.50
2018-05-31T10:20:31.769Z,33.50
2018-05-31T10:23:05.240Z,33.50
2018-05-31T10:25:38.546Z,33.40
2018-05-31T10:28:11.067Z,33.20
2018-05-31T10:30:44.269Z,33.00
2018-05-31T10:33:16.699Z,32.90
2018-05-31T10:35:50.151Z,32.80
2018-05-31T10:38:22.636Z,32.80
2018-05-31T10:40:56.897Z,32.70
2018-05-31T10:43:29.513Z,32.70
2018-05-31T10:46:01.981Z,32.60
2018-05-31T10:48:34.461Z,32.60
2018-05-31T10:51:06.972Z,32.50
2018-05-31T10:53:39.424Z,32.40
2018-05-31T10:56:12.873Z,32.40
2018-05-31T10:58:46.187Z,32.30
2018-05-31T11:01:19.548Z,32.20
2018-05-31T11:03:52.868Z,32.10
2018-05-31T11:06:26.415Z,31.90
2018-05-31T11:08:59.748Z,31.70
2018-05-31T11:11:32.985Z,31.20
2018-05-31T11:14:05.684Z,31.10
2018-05-31T11:16:38.207Z,31.00
2018-05-31T11:19:11.544Z,30.90
2018-05-31T11:21:45.735Z,30.70
2018-05-31T11:24:18.238Z,30.60
2018-05-31T11:26:50.709Z,30.60
2018-05-31T11:29:24.799Z,30.50
2018-05-31T11:31:57.654Z,30.40
2018-05-31T11:34:30.469Z,30.30
2018-05-31T11:37:03.328Z,30.20
2018-05-31T11:39:36.362Z,30.00
2018-05-31T11:42:08.749Z,29.90
2018-05-31T11:44:41.931Z,29.70
2018-05-31T11:47:15.210Z,29.60
2018-05-31T11:49:47.706Z,29.40
2018-05-31T11:52:21.373Z,29.20
2018-05-31T11:54:55.255Z,29.10
2018-05-31T11:57:29.347Z,29.00
2018-05-31T12:00:03.451Z,28.80
2018-05-31T12:02:36.692Z,28.80
2018-05-31T12:05:09.850Z,28.80
2018-05-31T12:07:43.295Z,28.60
2018-05-31T12:10:16.170Z,28.60
2018-05-31T12:12:49.387Z,28.50
2018-05-31T12:15:22.209Z,28.50
2018-05-31T12:17:54.794Z,28.40
2018-05-31T12:20:27.282Z,28.40
2018-05-31T12:23:00.481Z,28.40
2018-05-31T12:25:33.228Z,28.40
2018-05-31T12:28:05.769Z,28.30
2018-05-31T12:30:38.344Z,28.30
2018-05-31T12:33:10.973Z,28.30
2018-05-31T12:35:44.351Z,28.30
2018-05-31T12:38:16.899Z,28.30
2018-05-31T12:40:50.314Z,28.30
2018-05-31T12:43:23.521Z,28.30
2018-05-31T12:45:57.073Z,28.30
2018-05-31T12:48:29.607Z,28.30
2018-05-31T12:51:02.706Z,28.30
2018-05-31T12:53:35.364Z,28.20
2018-05-31T12:56:08.091Z,28.20
2018-05-31T12:58:40.730Z,28.20
2018-05-31T13:01:13.514Z,28.20
2018-05-31T13:03:46.713Z,28.20
2018-05-31T13:06:19.793Z,28.30
2018-05-31T13:08:52.830Z,28.30
2018-05-31T13:11:25.761Z,28.30
2018-05-31T13:13:58.804Z,28.30
2018-05-31T13:16:32.171Z,28.30
2018-05-31T13:19:05.712Z,28.20
2018-05-31T13:21:38.460Z,28.20
2018-05-31T13:24:11.871Z,28.20
2018-05-31T13:26:45.240Z,28.10
2018-05-31T13:29:18.503Z,28.00
2018-05-31T13:31:51.110Z,28.00
2018-05-31T13:34:23.561Z,28.00
2018-05-31T13:36:56.060Z,27.90
2018-05-31T13:39:28.586Z,27.90
2018-05-31T13:42:01.417Z,27.70
2018-05-31T13:44:35.398Z,27.60
2018-05-31T13:47:08.474Z,27.60
2018-05-31T13:49:41.013Z,27.50
2018-05-31T13:52:13.580Z,27.40
2018-05-31T13:54:46.331Z,27.40
2018-05-31T13:57:20.103Z,27.30
2018-05-31T13:59:53.355Z,27.30
2018-05-31T14:02:26.940Z,27.30
2018-05-31T14:05:00.300Z,27.30
2018-05-31T14:07:33.108Z,27.20
2018-05-31T14:10:06.846Z,27.30
2018-05-31T14:12:40.664Z,27.20
2018-05-31T14:15:14.035Z,27.20
2018-05-31T14:17:47.145Z,27.20
2018-05-31T14:20:20.044Z,27.30
2018-05-31T14:22:53.272Z,27.30
2018-05-31T14:25:27.095Z,27.40
2018-05-31T14:28:00.246Z,27.30
2018-05-31T14:30:32.921Z,27.40
2018-05-31T14:33:05.331Z,27.40
2018-05-31T14:35:37.710Z,27.40
2018-05-31T14:38:10.383Z,27.40
2018-05-31T14:40:42.879Z,27.40
2018-05-31T14:43:15.451Z,27.40
2018-05-31T14:45:48.889Z,27.40
2018-05-31T14:48:21.502Z,27.40
2018-05-31T14:50:55.217Z,27.40
2018-05-31T14:53:28.638Z,27.30
2018-05-31T14:56:02.162Z,27.30
2018-05-31T14:58:35.602Z,27.30
2018-05-31T15:01:08.714Z,27.30
2018-05-31T15:03:41.395Z,27.30
2018-05-31T15:06:15.319Z,27.40
2018-05-31T15:08:49.106Z,27.40
2018-05-31T15:11:22.884Z,27.50
2018-05-31T15:14:03.270Z,27.50
2018-05-31T15:16:37.284Z,27.50
2018-05-31T15:19:11.559Z,27.50
2018-05-31T15:21:45.052Z,27.50
2018-05-31T15:24:18.456Z,27.50
2018-05-31T15:26:51.359Z,27.60
2018-05-31T15:29:24.747Z,27.50
2018-05-31T15:31:58.158Z,27.50
2018-05-31T15:34:31.369Z,27.50
2018-05-31T15:37:04.331Z,27.50
2018-05-31T15:39:37.234Z,27.50
2018-05-31T15:42:11.059Z,27.50
2018-05-31T15:44:44.575Z,27.50
2018-05-31T15:47:17.325Z,27.50
2018-05-31T15:49:49.887Z,27.50
2018-05-31T15:52:22.377Z,27.50
2018-05-31T15:54:55.813Z,27.50
2018-05-31T15:57:29.475Z,27.50
2018-05-31T16:00:03.281Z,27.50
2018-05-31T16:02:35.809Z,27.50
2018-05-31T16:05:08.259Z,27.50
2018-05-31T16:07:41.389Z,27.50
2018-05-31T16:10:13.936Z,27.50
2018-05-31T16:12:46.513Z,27.40
2018-05-31T16:15:20.810Z,27.40
2018-05-31T16:17:54.078Z,27.40
2018-05-31T16:20:27.911Z,27.20
2018-05-31T16:23:01.064Z,27.20
2018-05-31T16:25:34.949Z,26.90
2018-05-31T16:28:07.991Z,26.50
2018-05-31T16:30:40.902Z,26.20
2018-05-31T16:33:14.406Z,25.70
2018-05-31T16:35:47.374Z,25.70
2018-05-31T16:38:20.619Z,25.50
2018-05-31T16:40:53.490Z,25.30
2018-05-31T16:43:26.286Z,25.00
2018-05-31T16:45:59.375Z,24.80
2018-05-31T16:48:33.205Z,24.50
2018-05-31T16:51:06.363Z,24.50
2018-05-31T16:53:38.979Z,24.50
2018-05-31T16:56:11.478Z,24.40
2018-05-31T16:58:44.850Z,24.40
2018-05-31T17:01:17.516Z,24.40
2018-05-31T17:03:50.881Z,24.30
2018-05-31T17:06:24.032Z,24.30
2018-05-31T17:08:56.526Z,24.30
2018-05-31T17:11:29.951Z,24.40
2018-05-31T17:14:02.800Z,24.30
2018-05-31T17:16:36.145Z,24.30
2018-05-31T17:19:10.444Z,24.30
2018-05-31T17:21:43.451Z,24.30
2018-05-31T17:24:16.996Z,24.30
2018-05-31T17:26:50.425Z,24.30
2018-05-31T17:29:23.114Z,24.30
2018-05-31T17:31:55.628Z,24.30
2018-05-31T17:34:28.978Z,24.30
2018-05-31T17:37:01.499Z,24.30
2018-05-31T17:39:34.317Z,24.20
2018-05-31T17:42:06.754Z,24.20
2018-05-31T17:44:39.674Z,24.20
2018-05-31T17:47:12.294Z,24.10
2018-05-31T17:49:44.963Z,24.00
2018-05-31T17:52:17.882Z,23.90
2018-05-31T17:54:50.589Z,23.80
2018-05-31T17:57:24.379Z,23.60
2018-05-31T17:59:57.649Z,23.60
2018-05-31T18:02:30.703Z,23.50
2018-05-31T18:05:04.233Z,23.40
2018-05-31T18:07:37.945Z,23.30
2018-05-31T18:10:10.394Z,23.30
2018-05-31T18:12:42.766Z,23.10
2018-05-31T18:15:16.260Z,23.10
2018-05-31T18:17:49.638Z,23.00
2018-05-31T18:20:22.875Z,22.80
2018-05-31T18:22:55.557Z,22.80
2018-05-31T18:25:28.221Z,22.70
2018-05-31T18:28:00.802Z,22.60
2018-05-31T18:30:33.528Z,22.50
2018-05-31T18:33:06.821Z,22.50
2018-05-31T18:35:39.520Z,22.40
2018-05-31T18:38:13.667Z,22.20
2018-05-31T18:40:47.102Z,22.20
2018-05-31T18:43:19.951Z,22.20
2018-05-31T18:45:53.902Z,22.10
2018-05-31T18:48:27.326Z,22.00
2018-05-31T18:51:01.131Z,22.00
2018-05-31T18:53:35.021Z,22.00
2018-05-31T18:56:08.422Z,21.80
2018-05-31T18:58:41.809Z,21.80
2018-05-31T19:01:16.071Z,21.80
2018-05-31T19:03:51.300Z,21.80
2018-05-31T19:06:24.841Z,21.80
2018-05-31T19:08:57.831Z,21.70
2018-05-31T19:11:30.581Z,21.70
2018-05-31T19:14:03.307Z,21.70
2018-05-31T19:16:36.161Z,21.60
2018-05-31T19:19:15.748Z,21.60
2018-05-31T19:21:50.050Z,21.60
2018-05-31T19:24:29.312Z,21.60
2018-05-31T19:27:02.918Z,21.60
2018-05-31T19:29:36.519Z,21.60
2018-05-31T19:32:10.761Z,21.50
2018-05-31T19:34:44.687Z,21.50
2018-05-31T19:37:18.341Z,21.50
2018-05-31T19:39:52.741Z,21.50
2018-05-31T19:45:30.367Z,21.50
2018-05-31T19:48:05.533Z,21.40
2018-05-31T19:50:39.309Z,21.40
2018-05-31T19:53:19.378Z,21.40
2018-05-31T19:55:53.157Z,21.40
2018-05-31T19:58:33.740Z,21.30
2018-05-31T20:01:13.429Z,21.30
2018-05-31T20:03:46.586Z,21.30
2018-05-31T20:06:20.976Z,21.20
2018-05-31T20:08:54.530Z,21.20
2018-05-31T20:11:27.615Z,21.20
2018-05-31T20:14:01.410Z,21.10
2018-05-31T20:16:35.125Z,21.00
2018-05-31T20:19:07.715Z,21.00
2018-05-31T20:21:40.204Z,21.00
2018-05-31T20:24:13.552Z,21.00
2018-05-31T20:26:47.660Z,20.90
2018-05-31T20:29:21.236Z,20.90
2018-05-31T20:31:53.951Z,20.90
2018-05-31T20:34:26.440Z,20.80
2018-05-31T20:36:59.870Z,20.80
2018-05-31T20:39:32.403Z,20.70
2018-05-31T20:42:05.699Z,20.70
2018-05-31T20:44:38.680Z,20.60
2018-05-31T20:47:11.703Z,20.50
2018-05-31T20:49:45.032Z,20.50
2018-05-31T20:52:18.967Z,20.40
2018-05-31T20:54:51.826Z,20.40
2018-05-31T20:57:25.545Z,20.30
2018-05-31T20:59:59.033Z,20.20
2018-05-31T21:02:32.377Z,20.10
2018-05-31T21:05:06.604Z,20.10
2018-05-31T21:07:39.307Z,20.10
2018-05-31T21:10:12.473Z,20.00
2018-05-31T21:12:46.462Z,19.90
2018-05-31T21:15:19.922Z,19.90
2018-05-31T21:17:53.377Z,19.90
2018-05-31T21:20:26.811Z,19.90
2018-05-31T21:23:00.701Z,20.00
2018-05-31T21:25:34.103Z,20.00
2018-05-31T21:28:06.539Z,20.00
2018-05-31T21:30:39.951Z,20.00
2018-05-31T21:33:12.401Z,20.00
2018-05-31T21:35:45.032Z,20.10
2018-05-31T21:38:18.061Z,20.00
2018-05-31T21:40:50.650Z,20.00
2018-05-31T21:43:23.098Z,20.10
2018-05-31T21:45:55.583Z,20.10
2018-05-31T21:48:28.857Z,20.10
2018-05-31T21:51:01.465Z,20.00
2018-05-31T21:53:33.825Z,20.00
2018-05-31T21:56:06.392Z,20.00
2018-05-31T21:58:39.716Z,19.90
2018-05-31T22:01:12.413Z,19.90
2018-05-31T22:03:44.918Z,19.90
2018-05-31T22:06:18.983Z,19.80
2018-05-31T22:08:51.658Z,19.80
2018-05-31T22:11:24.220Z,19.70
2018-05-31T22:13:57.423Z,19.70
2018-05-31T22:16:30.263Z,19.70
2018-05-31T22:19:03.617Z,19.60
2018-05-31T22:21:37.832Z,19.60
2018-05-31T22:24:10.306Z,19.60
2018-05-31T22:26:44.405Z,19.50
2018-05-31T22:29:17.050Z,19.50
2018-05-31T22:31:49.444Z,19.50
2018-05-31T22:34:21.987Z,19.50
2018-05-31T22:36:55.347Z,19.50
2018-05-31T22:39:28.555Z,19.40
2018-05-31T22:42:01.224Z,19.40
2018-05-31T22:44:35.304Z,19.40
2018-05-31T22:47:08.015Z,19.30
2018-05-31T22:49:41.357Z,19.30
2018-05-31T22:52:14.075Z,19.30
2018-05-31T22:54:47.296Z,19.30
2018-05-31T22:57:19.688Z,19.30
2018-05-31T22:59:52.113Z,19.30
2018-05-31T23:02:24.661Z,19.40
2018-05-31T23:05:05.263Z,19.40
2018-05-31T23:07:37.814Z,19.40
2018-05-31T23:10:10.275Z,19.40
2018-05-31T23:12:42.953Z,19.40
2018-05-31T23:15:16.081Z,19.40
2018-05-31T23:17:48.791Z,19.40
2018-05-31T23:20:21.297Z,19.30
2018-05-31T23:22:54.622Z,19.30
2018-05-31T23:25:27.732Z,19.30
2018-05-31T23:28:00.393Z,19.30
2018-05-31T23:30:32.742Z,19.30
2018-05-31T23:33:05.380Z,19.30
2018-05-31T23:35:39.638Z,19.30
2018-05-31T23:38:12.151Z,19.30
2018-05-31T23:40:45.385Z,19.30
2018-05-31T23:43:18.726Z,19.30
2018-05-31T23:45:51.143Z,19.30
2018-05-31T23:48:24.388Z,19.30
2018-05-31T23:50:56.964Z,19.30
2018-05-31T23:53:30.273Z,19.30
2018-05-31T23:56:03.621Z,19.30
2018-05-31T23:58:36.211Z,19.30
